Impacts METAR Board
IDs:

KMDW - Chicago/Midway Intl, IL, US

Updated at: 1100 UTC 30 Oct 2020
Potential Impact None Slight Moderate High
Time 29/23Z 30/00Z 30/01Z 30/02Z 30/03Z 30/04Z 30/05Z 30/06Z 30/07Z 30/08Z 30/09Z 30/10Z 30/11Z
Temp42 42 40 40 39 38 36 36 35 34 33 33 32
Dewpt31 31 28 27 24 22 22 22 22 22 22 22 21
Altim29.98 30.00 30.02 30.03 30.07 30.08 30.10 30.11 30.12 30.15 30.15 30.16 30.19
VIS10 10 10 10 10 10 10 10 10 10 10 10 10
CIG42 49 50 45 43 46 -- -- -- -- -- -- --
CoverOVCOVCBKNOVCOVCBKNSCTSCTSCTFEWFEWFEWFEW
FltCatVFRVFRVFRVFRVFRVFRVFRVFRVFRVFRVFRVFRVFR
WX--------------------------
WDir10350360350340320310320330320330330330
WSpd19 14 11 12 16 13 9 10 9 8 8 8 6
WGst26 25 -- -- 23 -- -- -- -- -- -- -- --
Raw hourly METARs
KMDW 292305Z 01019G26KT 10SM SCT024 BKN042 OVC049 06/M01 A2998 RMK AO2 PK WND 36026/2303 T00561006 $
KMDW 292353Z 35014G25KT 10SM FEW024 OVC049 06/M01 A3000 RMK AO2 PK WND 35029/2319 SLP163 T00561006 10089 20050 51025 $
KMDW 300053Z 36011KT 10SM BKN050 04/M02 A3002 RMK AO2 PK WND 36029/0000 SLP170 T00441022 $
KMDW 300153Z 35012KT 10SM FEW025 OVC045 04/M03 A3003 RMK AO2 SLP175 T00441028 $
KMDW 300253Z 34016G23KT 10SM OVC043 04/M04 A3007 RMK AO2 SLP189 T00391044 53024 $
KMDW 300353Z 32013KT 10SM BKN046 03/M06 A3008 RMK AO2 SLP191 T00331056 $
KMDW 300453Z 31009KT 10SM SCT038 02/M06 A3010 RMK AO2 SLP199 T00221056 $
KMDW 300553Z 32010KT 10SM SCT048 SCT190 02/M06 A3011 RMK AO2 SLP204 T00221056 10050 20022 401000022 53015 $
KMDW 300653Z 33009KT 10SM FEW048 SCT190 02/M06 A3012 RMK AO2 SLP206 T00171056 $
KMDW 300753Z 32008KT 10SM FEW048 01/M06 A3015 RMK AO2 SLP217 T00111056 $
KMDW 300853Z 33008KT 10SM FEW048 01/M06 A3015 RMK AO2 SLP217 T00061056 50010 $
KMDW 300953Z 33008KT 10SM FEW048 01/M06 A3016 RMK AO2 SLP223 T00061056 $
KMDW 301053Z 33006KT 10SM FEW045 00/M06 A3019 RMK AO2 SLP232 T00001061 $



Page loaded:  11:00 UTC  |   04:00 AM Pacific  |   05:00 AM Mountain  |   06:00 AM Central  |   07:00 AM Eastern

 

ADVISORIES

FORECASTS

FORECASTS

OBSERVATIONS

USER TOOLS

ABOUT US